createdAt,value
2022-11-10T00:02:13.970Z,71.90
2022-11-10T00:04:59.472Z,68.23
2022-11-10T00:07:44.948Z,71.57
2022-11-10T00:10:30.554Z,69.23
2022-11-10T00:13:15.755Z,70.07
2022-11-10T00:16:21.843Z,72.93
2022-11-10T00:19:07.506Z,69.67
2022-11-10T00:21:53.000Z,73.43
2022-11-10T00:24:38.487Z,74.27
2022-11-10T00:27:24.155Z,71.83
2022-11-10T00:30:09.791Z,68.60
2022-11-10T00:32:55.135Z,64.67
2022-11-10T00:35:40.475Z,69.07
2022-11-10T00:38:25.969Z,62.97
2022-11-10T00:41:11.459Z,62.00
2022-11-10T00:43:57.263Z,64.30
2022-11-10T00:46:43.046Z,63.43
2022-11-10T00:49:28.901Z,65.50
2022-11-10T00:52:14.320Z,62.47
2022-11-10T00:54:59.873Z,62.17
2022-11-10T00:57:45.421Z,64.27
2022-11-10T01:00:31.131Z,65.00
2022-11-10T01:03:17.929Z,69.50
2022-11-10T01:06:17.235Z,63.87
2022-11-10T01:09:02.897Z,67.73
2022-11-10T01:11:48.089Z,64.03
2022-11-10T01:14:33.445Z,62.43
2022-11-10T01:17:18.870Z,66.40
2022-11-10T01:20:04.823Z,59.40
2022-11-10T01:22:50.071Z,65.67
2022-11-10T01:25:35.840Z,65.33
2022-11-10T01:28:21.468Z,63.83
2022-11-10T01:31:21.585Z,68.40
2022-11-10T01:34:07.039Z,64.73
2022-11-10T01:36:52.357Z,62.53
2022-11-10T01:39:37.864Z,67.53
2022-11-10T01:42:29.704Z,60.57
2022-11-10T01:45:24.203Z,64.17
2022-11-10T01:48:14.928Z,60.83
2022-11-10T01:51:15.911Z,65.33
2022-11-10T01:54:11.894Z,65.30
2022-11-10T01:57:05.356Z,67.23
2022-11-10T01:59:51.248Z,74.97
2022-11-10T02:02:48.804Z,67.17
2022-11-10T02:05:35.198Z,66.30
2022-11-10T02:08:22.324Z,74.93
2022-11-10T02:11:07.571Z,74.97
2022-11-10T02:13:53.638Z,69.43
2022-11-10T02:16:40.341Z,73.90
2022-11-10T02:19:28.273Z,70.53
2022-11-10T02:22:14.023Z,72.53
2022-11-10T02:24:59.785Z,74.73
2022-11-10T02:27:45.391Z,70.63
2022-11-10T02:30:30.939Z,69.60
2022-11-10T02:33:17.861Z,74.47
2022-11-10T02:36:03.914Z,69.20
2022-11-10T02:38:49.336Z,72.23
2022-11-10T02:41:35.045Z,77.27
2022-11-10T02:44:20.885Z,73.43
2022-11-10T02:47:07.678Z,73.07
2022-11-10T02:49:53.258Z,67.83
2022-11-10T02:52:38.917Z,68.63
2022-11-10T02:55:24.403Z,73.23
2022-11-10T02:58:09.956Z,69.33
2022-11-10T03:00:55.229Z,70.63
2022-11-10T03:03:40.878Z,68.03
2022-11-10T03:06:26.434Z,73.47
2022-11-10T03:09:12.203Z,82.17
2022-11-10T03:11:57.606Z,74.63
2022-11-10T03:14:43.044Z,76.40
2022-11-10T03:17:28.591Z,76.17
2022-11-10T03:20:14.419Z,71.57
2022-11-10T03:23:04.596Z,72.63
2022-11-10T03:25:50.285Z,77.97
2022-11-10T03:28:35.660Z,77.70
2022-11-10T03:31:21.228Z,70.83
2022-11-10T03:34:06.936Z,73.63
2022-11-10T03:36:52.672Z,72.73
2022-11-10T03:39:39.873Z,74.30
2022-11-10T03:42:25.115Z,73.13
2022-11-10T03:45:12.046Z,72.73
2022-11-10T03:47:57.685Z,77.30
2022-11-10T03:50:43.189Z,77.30
2022-11-10T03:53:28.757Z,78.40
2022-11-10T03:56:14.459Z,73.70
2022-11-10T03:59:00.003Z,77.20
2022-11-10T04:01:45.588Z,78.37
2022-11-10T04:04:49.511Z,74.87
2022-11-10T04:07:53.650Z,83.43
2022-11-10T04:10:39.442Z,80.07
2022-11-10T04:13:43.305Z,77.43
2022-11-10T04:16:28.902Z,80.50
2022-11-10T04:19:15.020Z,78.27
2022-11-10T04:22:00.709Z,80.17
2022-11-10T04:24:45.972Z,81.80
2022-11-10T04:27:31.626Z,71.13
2022-11-10T04:30:17.160Z,80.00
2022-11-10T04:33:02.506Z,83.40
2022-11-10T04:35:47.893Z,76.93
2022-11-10T04:38:33.744Z,78.77
2022-11-10T04:41:19.394Z,84.30
2022-11-10T04:44:05.199Z,88.33
2022-11-10T04:46:50.766Z,78.03
2022-11-10T04:49:36.346Z,77.10
2022-11-10T04:52:21.635Z,80.23
2022-11-10T04:55:07.669Z,70.70
2022-11-10T04:57:53.285Z,67.30
2022-11-10T05:00:39.733Z,73.63
2022-11-10T05:03:26.648Z,73.37
2022-11-10T05:06:12.474Z,67.83
2022-11-10T05:08:57.858Z,72.27
2022-11-10T05:11:43.317Z,69.03
2022-11-10T05:14:28.911Z,72.90
2022-11-10T05:17:14.419Z,64.53
2022-11-10T05:19:59.697Z,67.73
2022-11-10T05:23:06.810Z,68.73
2022-11-10T05:25:52.432Z,69.47
2022-11-10T05:28:38.831Z,64.30
2022-11-10T05:31:24.582Z,66.00
2022-11-10T05:34:10.187Z,64.17
2022-11-10T05:36:55.784Z,62.33
2022-11-10T05:39:41.287Z,75.07
2022-11-10T05:42:27.552Z,70.10
2022-11-10T05:45:12.973Z,65.97
2022-11-10T05:47:58.355Z,62.03
2022-11-10T05:50:44.734Z,64.40
2022-11-10T05:53:30.216Z,68.37
2022-11-10T05:56:16.252Z,71.00
2022-11-10T05:59:01.792Z,66.47
2022-11-10T06:01:47.361Z,71.73
2022-11-10T06:04:32.817Z,68.67
2022-11-10T06:07:18.574Z,66.80
2022-11-10T06:10:04.886Z,65.63
2022-11-10T06:12:50.570Z,69.23
2022-11-10T06:15:35.931Z,66.17
2022-11-10T06:18:21.580Z,71.17
2022-11-10T06:21:06.868Z,74.73
2022-11-10T06:23:52.464Z,68.50
2022-11-10T06:26:37.884Z,74.73
2022-11-10T06:29:26.834Z,77.67
2022-11-10T06:32:12.499Z,74.50
2022-11-10T06:35:00.445Z,70.60
2022-11-10T06:37:46.632Z,72.17
2022-11-10T06:40:32.780Z,71.33
2022-11-10T06:43:18.188Z,66.57
2022-11-10T06:46:03.826Z,71.73
2022-11-10T06:48:49.108Z,73.07
2022-11-10T06:51:34.856Z,72.93
2022-11-10T06:54:20.156Z,76.27
2022-11-10T06:57:05.944Z,68.77
2022-11-10T06:59:51.869Z,70.10
2022-11-10T07:02:37.268Z,71.27
2022-11-10T07:05:22.866Z,65.93
2022-11-10T07:08:13.622Z,68.83
2022-11-10T07:10:58.891Z,66.40
2022-11-10T07:13:44.552Z,71.20
2022-11-10T07:16:30.076Z,69.10
2022-11-10T07:19:15.219Z,67.23
2022-11-10T07:22:00.904Z,69.20
2022-11-10T07:24:46.100Z,72.03
2022-11-10T07:27:31.769Z,75.17
2022-11-10T07:30:17.525Z,68.50
2022-11-10T07:33:09.461Z,71.27
2022-11-10T07:36:03.423Z,69.93
2022-11-10T07:38:49.048Z,69.60
2022-11-10T07:41:34.400Z,69.10
2022-11-10T07:44:19.776Z,72.40
2022-11-10T07:47:05.521Z,69.67
2022-11-10T07:49:50.813Z,79.60
2022-11-10T07:52:36.321Z,79.13
2022-11-10T07:55:21.930Z,88.67
2022-11-10T07:58:08.071Z,85.53
2022-11-10T08:00:53.269Z,83.00
2022-11-10T08:03:38.923Z,80.03
2022-11-10T08:06:24.170Z,80.97
2022-11-10T08:09:09.718Z,82.03
2022-11-10T08:11:55.469Z,79.67
2022-11-10T08:14:40.971Z,80.87
2022-11-10T08:17:26.487Z,76.07
2022-11-10T08:20:12.194Z,78.70
2022-11-10T08:23:02.909Z,75.27
2022-11-10T08:25:48.463Z,75.93
2022-11-10T08:28:33.709Z,68.43
2022-11-10T08:31:19.008Z,72.20
2022-11-10T08:34:05.738Z,70.13
2022-11-10T08:36:54.091Z,66.10
2022-11-10T08:39:40.440Z,67.70
2022-11-10T08:42:26.006Z,69.40
2022-11-10T08:45:11.294Z,67.27
2022-11-10T08:47:59.006Z,66.83
2022-11-10T08:50:44.723Z,69.33
2022-11-10T08:53:30.087Z,61.43
2022-11-10T08:56:15.446Z,65.13
2022-11-10T08:59:01.351Z,67.40
2022-11-10T09:01:47.017Z,66.33
2022-11-10T09:04:32.710Z,64.00
2022-11-10T09:07:18.148Z,61.60
2022-11-10T09:10:07.823Z,69.33
2022-11-10T09:12:54.043Z,63.53
2022-11-10T09:15:41.547Z,67.40
2022-11-10T09:18:26.941Z,62.47
2022-11-10T09:21:12.578Z,64.97
2022-11-10T09:23:57.986Z,68.33
2022-11-10T09:26:45.370Z,61.30
2022-11-10T09:29:30.626Z,70.40
2022-11-10T09:32:15.944Z,65.80
2022-11-10T09:35:02.191Z,64.67
2022-11-10T09:37:47.438Z,63.70
2022-11-10T09:40:53.996Z,70.80
2022-11-10T09:43:58.331Z,64.30
2022-11-10T09:47:01.192Z,59.23
2022-11-10T09:50:00.917Z,59.37
2022-11-10T09:52:49.309Z,69.20
2022-11-10T09:55:46.510Z,66.67
2022-11-10T09:58:40.807Z,69.73
2022-11-10T10:01:47.710Z,66.53
2022-11-10T10:04:36.235Z,65.67
2022-11-10T10:07:31.384Z,68.33
2022-11-10T10:11:02.321Z,69.93
2022-11-10T10:14:06.662Z,75.10
2022-11-10T10:17:04.349Z,74.17
2022-11-10T10:20:02.459Z,80.40
2022-11-10T10:22:54.139Z,83.40
2022-11-10T10:25:43.374Z,85.07
2022-11-10T10:28:36.952Z,81.00
2022-11-10T10:31:32.897Z,89.93
2022-11-10T10:34:25.154Z,85.20
2022-11-10T10:37:34.470Z,86.40
2022-11-10T10:40:23.008Z,96.20
2022-11-10T10:43:08.446Z,87.30
2022-11-10T10:46:07.866Z,96.83
2022-11-10T10:49:28.060Z,91.37
2022-11-10T10:52:17.335Z,95.90
2022-11-10T10:55:08.169Z,86.90
2022-11-10T10:58:00.546Z,82.47
2022-11-10T11:00:48.641Z,83.03
2022-11-10T11:03:48.714Z,87.40
2022-11-10T11:06:35.275Z,77.20
2022-11-10T11:09:40.068Z,79.83
2022-11-10T11:12:29.032Z,76.00
2022-11-10T11:15:26.710Z,78.53
2022-11-10T11:18:20.732Z,75.47
2022-11-10T11:21:34.978Z,78.10
2022-11-10T11:24:32.311Z,77.10
2022-11-10T11:27:56.724Z,69.43
2022-11-10T11:30:41.993Z,69.10
2022-11-10T11:33:32.753Z,70.90
2022-11-10T11:36:51.514Z,65.80
2022-11-10T11:40:12.795Z,71.10
2022-11-10T11:43:20.831Z,63.70
2022-11-10T11:46:33.738Z,67.00
2022-11-10T11:49:24.893Z,65.97
2022-11-10T11:52:38.547Z,61.83
2022-11-10T11:55:36.825Z,65.60
2022-11-10T11:58:57.890Z,64.67
2022-11-10T12:02:19.500Z,63.53
2022-11-10T12:05:08.324Z,66.83
2022-11-10T12:08:26.631Z,68.13
2022-11-10T12:11:30.076Z,64.60
2022-11-10T12:14:46.045Z,68.63
2022-11-10T12:17:43.364Z,60.63
2022-11-10T12:21:03.352Z,68.33
2022-11-10T12:24:12.947Z,72.73
2022-11-10T12:27:37.590Z,72.70
2022-11-10T12:30:23.546Z,77.43
2022-11-10T12:33:34.179Z,70.50
2022-11-10T12:36:22.468Z,68.73
2022-11-10T12:39:54.915Z,74.77
2022-11-10T12:42:43.853Z,81.00
2022-11-10T12:45:32.320Z,77.70
2022-11-10T12:48:18.808Z,72.93
2022-11-10T12:51:29.180Z,71.87
2022-11-10T12:54:17.829Z,74.17
2022-11-10T12:57:13.425Z,74.67
2022-11-10T13:00:03.615Z,69.47
2022-11-10T13:02:50.769Z,72.60
2022-11-10T13:05:45.324Z,70.43
2022-11-10T13:08:35.871Z,73.27
2022-11-10T13:11:35.627Z,75.83
2022-11-10T13:14:28.251Z,69.80
2022-11-10T13:17:29.040Z,77.57
2022-11-10T13:20:39.397Z,71.23
2022-11-10T13:23:27.598Z,73.53
2022-11-10T13:26:44.747Z,72.47
2022-11-10T13:29:37.293Z,68.53
2022-11-10T13:32:26.909Z,71.60
2022-11-10T13:35:30.564Z,81.17
2022-11-10T13:38:42.120Z,66.40
2022-11-10T13:41:27.681Z,69.53
2022-11-10T13:44:38.930Z,73.50
2022-11-10T13:47:52.292Z,68.80
2022-11-10T13:51:08.267Z,71.90
2022-11-10T13:54:07.214Z,69.77
2022-11-10T13:57:20.502Z,75.00
2022-11-10T14:00:16.389Z,71.70
2022-11-10T14:03:07.234Z,70.37
2022-11-10T14:06:45.645Z,77.37
2022-11-10T14:09:39.644Z,67.07
2022-11-10T14:12:42.925Z,68.73
2022-11-10T14:15:40.755Z,66.40
2022-11-10T14:18:42.867Z,61.47
2022-11-10T14:21:56.863Z,68.87
2022-11-10T14:25:06.441Z,63.93
2022-11-10T14:27:57.700Z,67.80
2022-11-10T14:30:52.261Z,67.93
2022-11-10T14:33:37.854Z,56.90
2022-11-10T14:36:24.393Z,61.07
2022-11-10T14:39:09.872Z,62.63
2022-11-10T14:41:57.352Z,65.20
2022-11-10T14:44:43.063Z,58.87
2022-11-10T14:47:33.042Z,63.33
2022-11-10T14:50:22.056Z,60.70
2022-11-10T14:53:12.300Z,56.30
2022-11-10T14:56:00.733Z,58.53
2022-11-10T14:58:47.229Z,55.53
2022-11-10T15:01:38.962Z,53.70
2022-11-10T15:04:34.052Z,51.73
2022-11-10T15:07:19.635Z,54.67
2022-11-10T15:10:25.220Z,53.60
2022-11-10T15:13:32.023Z,57.73
2022-11-10T15:16:26.976Z,54.30
2022-11-10T15:19:24.457Z,49.80
2022-11-10T15:22:12.962Z,48.90
2022-11-10T15:25:10.349Z,52.90
2022-11-10T15:28:05.663Z,49.47
2022-11-10T15:30:54.422Z,50.17
2022-11-10T15:33:47.083Z,49.67
2022-11-10T15:36:35.712Z,53.13
2022-11-10T15:39:26.706Z,47.43
2022-11-10T15:42:21.473Z,54.07
2022-11-10T15:45:07.392Z,50.93
2022-11-10T15:47:52.933Z,52.03
2022-11-10T15:50:38.420Z,54.27
2022-11-10T15:53:34.279Z,53.70
2022-11-10T15:56:22.437Z,52.00
2022-11-10T15:59:10.934Z,52.67
2022-11-10T16:01:56.729Z,51.33
2022-11-10T16:04:42.547Z,46.30
2022-11-10T16:07:28.245Z,51.97
2022-11-10T16:10:13.953Z,54.57
2022-11-10T16:12:59.883Z,48.97
2022-11-10T16:15:45.722Z,50.07
2022-11-10T16:18:32.086Z,54.93
2022-11-10T16:21:20.647Z,56.13
2022-11-10T16:24:06.200Z,54.17
2022-11-10T16:26:51.906Z,52.77
2022-11-10T16:29:38.229Z,51.80
2022-11-10T16:32:23.698Z,56.97
2022-11-10T16:35:14.129Z,51.00
2022-11-10T16:37:59.904Z,53.37
2022-11-10T16:40:47.592Z,54.10
2022-11-10T16:43:32.989Z,57.47
2022-11-10T16:46:24.599Z,55.50
2022-11-10T16:49:34.687Z,55.70
2022-11-10T16:52:21.520Z,60.27
2022-11-10T16:55:10.015Z,58.77
2022-11-10T16:57:55.307Z,50.97
2022-11-10T17:00:41.493Z,58.33
2022-11-10T17:03:44.451Z,57.67
2022-11-10T17:06:30.592Z,56.90
2022-11-10T17:09:26.608Z,57.47
2022-11-10T17:12:13.579Z,59.77
2022-11-10T17:14:59.046Z,62.03
2022-11-10T17:17:46.376Z,58.60
2022-11-10T17:20:39.834Z,53.90
2022-11-10T17:23:26.570Z,54.70
2022-11-10T17:26:14.653Z,53.30
2022-11-10T17:29:01.158Z,56.77
2022-11-10T17:31:46.604Z,59.93
2022-11-10T17:34:32.053Z,60.00
2022-11-10T17:37:18.736Z,61.70
2022-11-10T17:40:11.955Z,69.00
2022-11-10T17:42:57.429Z,59.27
2022-11-10T17:45:43.290Z,59.13
2022-11-10T17:48:28.774Z,66.97
2022-11-10T17:51:19.217Z,68.00
2022-11-10T17:54:05.818Z,66.13
2022-11-10T17:56:51.137Z,61.27
2022-11-10T17:59:36.738Z,62.50
2022-11-10T18:02:22.839Z,67.13
2022-11-10T18:05:12.269Z,67.53
2022-11-10T18:07:57.908Z,64.20
2022-11-10T18:10:51.529Z,60.63
2022-11-10T18:13:38.402Z,61.90
2022-11-10T18:16:23.937Z,68.00
2022-11-10T18:19:11.231Z,59.23
2022-11-10T18:21:56.738Z,66.17
2022-11-10T18:24:42.679Z,62.67
2022-11-10T18:27:29.044Z,65.27
2022-11-10T18:30:17.020Z,60.40
2022-11-10T18:33:03.382Z,64.00
2022-11-10T18:35:49.088Z,65.40
2022-11-10T18:38:34.876Z,60.87
2022-11-10T18:41:39.057Z,62.07
2022-11-10T18:44:24.815Z,66.07
2022-11-10T18:47:13.218Z,62.37
2022-11-10T18:49:58.618Z,59.30
2022-11-10T18:52:44.676Z,59.77
2022-11-10T18:55:30.328Z,56.77
2022-11-10T18:58:15.777Z,55.73
2022-11-10T19:01:08.962Z,60.73
2022-11-10T19:03:54.650Z,53.43
2022-11-10T19:06:41.046Z,60.43
2022-11-10T19:09:26.523Z,59.27
2022-11-10T19:12:12.452Z,58.33
2022-11-10T19:14:58.234Z,56.90
2022-11-10T19:17:43.544Z,59.03
2022-11-10T19:20:29.219Z,61.83
2022-11-10T19:23:14.750Z,54.40
2022-11-10T19:26:05.807Z,58.73
2022-11-10T19:28:53.457Z,59.27
2022-11-10T19:31:39.037Z,59.37
2022-11-10T19:34:24.259Z,58.57
2022-11-10T19:37:09.911Z,56.27
2022-11-10T19:39:55.469Z,61.33
2022-11-10T19:42:41.074Z,57.97
2022-11-10T19:45:26.760Z,54.23
2022-11-10T19:48:12.358Z,51.70
2022-11-10T19:50:58.964Z,57.63
2022-11-10T19:53:47.038Z,55.90
2022-11-10T19:56:34.505Z,53.87
2022-11-10T19:59:21.188Z,53.47
2022-11-10T20:02:07.943Z,54.93
2022-11-10T20:05:11.900Z,65.03
2022-11-10T20:08:12.570Z,59.43
2022-11-10T20:11:08.528Z,58.57
2022-11-10T20:13:56.140Z,55.80
2022-11-10T20:16:41.786Z,57.20
2022-11-10T20:19:27.351Z,56.00
2022-11-10T20:22:13.643Z,60.70
2022-11-10T20:24:59.573Z,61.07
2022-11-10T20:27:44.931Z,62.77
2022-11-10T20:30:30.642Z,54.07
2022-11-10T20:33:15.908Z,60.23
2022-11-10T20:36:18.994Z,60.47
2022-11-10T20:39:05.761Z,61.27
2022-11-10T20:41:52.837Z,61.33
2022-11-10T20:44:38.760Z,67.83
2022-11-10T20:47:24.513Z,63.83
2022-11-10T20:50:14.468Z,65.67
2022-11-10T20:53:02.547Z,69.07
2022-11-10T20:55:55.432Z,59.60
2022-11-10T20:58:41.876Z,62.73
2022-11-10T21:01:27.175Z,69.57
2022-11-10T21:04:12.786Z,70.00
2022-11-10T21:06:58.252Z,65.23
2022-11-10T21:09:44.056Z,65.33
2022-11-10T21:12:47.717Z,69.97
2022-11-10T21:15:36.496Z,67.43
2022-11-10T21:18:23.058Z,67.83
2022-11-10T21:21:23.584Z,72.10
2022-11-10T21:24:10.566Z,69.27
2022-11-10T21:26:57.336Z,72.97
2022-11-10T21:29:43.027Z,72.93
2022-11-10T21:32:28.792Z,67.77
2022-11-10T21:35:14.683Z,78.37
2022-11-10T21:38:00.180Z,69.63
2022-11-10T21:40:45.745Z,74.13
2022-11-10T21:43:31.532Z,70.20
2022-11-10T21:46:17.228Z,77.77
2022-11-10T21:49:07.311Z,77.97
2022-11-10T21:51:53.322Z,81.07
2022-11-10T21:54:39.133Z,81.60
2022-11-10T21:57:25.234Z,79.63
2022-11-10T22:00:12.562Z,74.50
2022-11-10T22:02:59.614Z,78.67
2022-11-10T22:05:44.860Z,76.73
2022-11-10T22:08:31.035Z,77.17
2022-11-10T22:11:37.787Z,82.20
2022-11-10T22:14:41.767Z,80.93
2022-11-10T22:17:45.712Z,80.13
2022-11-10T22:20:31.286Z,74.40
2022-11-10T22:23:16.872Z,73.53
2022-11-10T22:26:02.488Z,74.00
2022-11-10T22:28:48.979Z,75.20
2022-11-10T22:31:34.716Z,74.30
2022-11-10T22:34:20.793Z,68.50
2022-11-10T22:37:06.644Z,71.00
2022-11-10T22:40:10.501Z,70.03
2022-11-10T22:43:14.592Z,73.00
2022-11-10T22:46:00.244Z,74.33
2022-11-10T22:48:45.769Z,73.17
2022-11-10T22:51:32.485Z,70.07
2022-11-10T22:54:20.068Z,74.60
2022-11-10T22:57:05.615Z,79.57
2022-11-10T22:59:50.929Z,72.20
2022-11-10T23:02:37.368Z,78.70
2022-11-10T23:05:22.529Z,75.27
2022-11-10T23:08:08.346Z,75.90
2022-11-10T23:11:06.504Z,77.73
2022-11-10T23:13:51.959Z,75.67
2022-11-10T23:16:37.345Z,70.87
2022-11-10T23:19:22.924Z,81.63
2022-11-10T23:22:08.480Z,72.87
2022-11-10T23:24:56.979Z,75.07
2022-11-10T23:27:43.005Z,71.53
2022-11-10T23:30:28.556Z,73.13
2022-11-10T23:33:14.116Z,69.20
2022-11-10T23:35:59.644Z,73.30
2022-11-10T23:38:47.127Z,69.03
2022-11-10T23:41:32.617Z,66.97
2022-11-10T23:44:17.917Z,71.93
2022-11-10T23:47:03.316Z,69.00
2022-11-10T23:49:48.825Z,69.97
2022-11-10T23:52:34.276Z,67.60
2022-11-10T23:55:19.686Z,65.77
2022-11-10T23:58:06.012Z,62.57
